Time;durP1;ratioP1;P1;durP2;ratioP2;P2;SDS_P1;SDS_P2;PMS_P1;PMS_P2;Temp;Humidity;BMP_temperature;BMP_pressure;BME280_temperature;BME280_humidity;BME280_pressure;Samples;Min_cycle;Max_cycle;Signal;HPM_P1;HPM_P2
2022/07/06 00:01:20;;;;;;;12.25;3.45;;;21.60;96.10;;;;;;12981081;22;20228;-83
2022/07/06 00:06:23;;;;;;;6.65;2.75;;;21.60;96.70;;;;;;12954630;22;20197;-83
2022/07/06 00:11:26;;;;;;;4.05;3.47;;;21.50;96.40;;;;;;12982569;22;20219;-84
2022/07/06 00:16:29;;;;;;;8.00;2.72;;;21.50;96.20;;;;;;12981994;22;20552;-83
2022/07/06 00:21:31;;;;;;;12.63;3.35;;;21.40;96.50;;;;;;12982357;22;20200;-83
2022/07/06 00:26:34;;;;;;;8.75;2.92;;;21.40;96.80;;;;;;12982283;22;20671;-83
2022/07/06 00:31:36;;;;;;;4.00;2.53;;;21.40;97.50;;;;;;12982495;22;20162;-83
2022/07/06 00:36:39;;;;;;;10.15;2.85;;;21.30;98.00;;;;;;12982247;22;20170;-84
2022/07/06 00:41:41;;;;;;;4.65;3.13;;;21.20;98.20;;;;;;12981801;22;20170;-83
2022/07/06 00:46:44;;;;;;;4.65;3.20;;;21.10;98.40;;;;;;12981821;22;20180;-83
2022/07/06 00:51:47;;;;;;;5.43;2.67;;;21.10;98.40;;;;;;12954079;22;20174;-83
2022/07/06 00:56:49;;;;;;;4.80;2.70;;;21.00;98.60;;;;;;12954156;22;20166;-83
2022/07/06 01:01:52;;;;;;;3.17;2.50;;;21.00;98.60;;;;;;12928595;22;20174;-83
2022/07/06 01:06:56;;;;;;;5.95;3.58;;;20.90;98.90;;;;;;12953406;22;20174;-83
2022/07/06 01:11:59;;;;;;;10.85;3.20;;;20.90;98.70;;;;;;12981157;22;20219;-83
2022/07/06 01:17:01;;;;;;;4.78;3.42;;;20.80;98.90;;;;;;12981379;22;20166;-84
2022/07/06 01:22:04;;;;;;;4.00;3.13;;;20.80;99.50;;;;;;12954045;22;20220;-83
2022/07/06 01:27:07;;;;;;;5.68;3.30;;;20.80;99.90;;;;;;12952341;22;20227;-83
2022/07/06 01:32:10;;;;;;;7.57;2.88;;;20.70;99.90;;;;;;12980324;22;20216;-83
2022/07/06 01:37:12;;;;;;;6.25;2.83;;;20.60;99.90;;;;;;12953243;22;20227;-83
2022/07/06 01:42:17;;;;;;;3.67;3.38;;;;;;;;;;12998033;22;20215;-83
2022/07/06 01:47:20;;;;;;;4.28;3.20;;;20.50;99.90;;;;;;12952809;22;20247;-83
2022/07/06 01:52:26;;;;;;;6.63;3.05;;;20.50;99.90;;;;;;12951981;22;20177;-83
2022/07/06 01:57:29;;;;;;;3.95;3.50;;;20.50;99.90;;;;;;12980037;22;20243;-83
2022/07/06 02:02:31;;;;;;;4.78;3.85;;;20.50;99.90;;;;;;12951088;22;20190;-83
2022/07/06 02:07:34;;;;;;;3.50;3.20;;;20.50;99.90;;;;;;12951655;22;20178;-84
2022/07/06 02:12:37;;;;;;;5.40;3.70;;;20.40;99.90;;;;;;12927973;22;20196;-83
2022/07/06 02:17:40;;;;;;;5.03;4.00;;;20.50;99.90;;;;;;12952373;22;20702;-83
2022/07/06 02:22:43;;;;;;;3.90;3.30;;;20.40;99.90;;;;;;12951363;22;20672;-83
2022/07/06 02:27:45;;;;;;;9.25;4.35;;;20.50;99.90;;;;;;12979979;22;20188;-84
2022/07/06 02:32:48;;;;;;;3.85;3.53;;;20.40;99.90;;;;;;12956526;22;20504;-83
2022/07/06 02:37:51;;;;;;;8.07;3.40;;;20.30;99.90;;;;;;12955407;22;20212;-84
2022/07/06 02:42:53;;;;;;;5.75;2.97;;;20.30;99.90;;;;;;12955798;22;20193;-84
2022/07/06 02:47:57;;;;;;;4.72;3.58;;;20.30;99.90;;;;;;12956335;22;20170;-83
2022/07/06 02:53:01;;;;;;;3.85;3.45;;;20.40;99.90;;;;;;12954903;22;20200;-83
2022/07/06 02:58:06;;;;;;;6.80;3.75;;;20.30;99.90;;;;;;12956003;22;20228;-83
2022/07/06 03:03:10;;;;;;;4.97;3.88;;;20.30;99.90;;;;;;12974737;22;20236;-83
2022/07/06 03:08:13;;;;;;;7.38;4.35;;;20.40;99.90;;;;;;12982766;22;20255;-83
2022/07/06 03:13:16;;;;;;;6.38;4.03;;;20.10;99.90;;;;;;12956738;22;20609;-83
2022/07/06 03:18:20;;;;;;;5.85;3.95;;;20.10;99.90;;;;;;12957137;22;20170;-84
2022/07/06 03:23:23;;;;;;;5.45;4.35;;;19.70;99.90;;;;;;12955459;22;20505;-84
2022/07/06 03:28:25;;;;;;;6.10;4.07;;;20.10;99.90;;;;;;12930473;22;20170;-84
2022/07/06 03:33:28;;;;;;;5.38;3.92;;;20.30;99.90;;;;;;12984232;22;20850;-83
2022/07/06 03:38:31;;;;;;;4.57;4.18;;;20.30;99.90;;;;;;12956522;22;20173;-84
2022/07/06 03:43:34;;;;;;;6.40;4.00;;;20.40;99.90;;;;;;12957445;22;20263;-84
2022/07/06 03:48:36;;;;;;;4.93;3.53;;;20.40;99.90;;;;;;12956894;22;20228;-84
2022/07/06 03:53:43;;;;;;;4.43;4.00;;;20.40;99.90;;;;;;12953483;22;20570;-84
2022/07/06 03:58:47;;;;;;;4.95;4.45;;;20.30;99.90;;;;;;12956129;22;20205;-84
2022/07/06 04:03:49;;;;;;;4.70;4.25;;;19.10;99.90;;;;;;12956470;22;20251;-84
2022/07/06 04:08:52;;;;;;;8.50;4.25;;;19.50;99.90;;;;;;12955691;22;20178;-84
2022/07/06 04:13:55;;;;;;;4.53;4.10;;;20.00;99.90;;;;;;12956372;22;20177;-84
2022/07/06 04:18:59;;;;;;;7.97;4.43;;;20.20;99.90;;;;;;12955876;22;20170;-84
2022/07/06 04:24:02;;;;;;;6.97;4.35;;;20.20;99.90;;;;;;13001538;22;20186;-84
2022/07/06 04:29:04;;;;;;;9.07;4.32;;;20.10;99.90;;;;;;12957213;22;20178;-84
2022/07/06 04:34:07;;;;;;;7.25;4.60;;;20.30;99.90;;;;;;13008575;22;20183;-84
2022/07/06 04:39:10;;;;;;;6.13;5.20;;;20.20;99.90;;;;;;13061919;22;20229;-84
2022/07/06 04:44:13;;;;;;;5.32;4.65;;;20.10;99.90;;;;;;13017021;22;20271;-84
2022/07/06 04:49:15;;;;;;;6.85;5.25;;;20.30;99.90;;;;;;12992046;22;20241;-84
2022/07/06 04:54:18;;;;;;;10.77;4.50;;;20.10;99.90;;;;;;13016529;22;20217;-84
2022/07/06 04:59:21;;;;;;;7.03;5.40;;;19.20;99.90;;;;;;13043282;22;20265;-86
2022/07/06 05:04:24;;;;;;;4.90;3.50;;;20.40;99.90;;;;;;13016190;22;20256;-84
2022/07/06 05:09:27;;;;;;;6.07;4.32;;;20.70;99.90;;;;;;13014662;22;20244;-84
2022/07/06 05:14:38;;;;;;;4.78;3.40;;;21.30;99.90;;;;;;13015614;22;20225;-84
2022/07/06 05:19:44;;;;;;;4.28;3.38;;;21.60;99.90;;;;;;13016306;22;20257;-84
2022/07/06 05:24:47;;;;;;;5.68;3.60;;;21.90;99.90;;;;;;13042957;22;20253;-84
2022/07/06 05:29:50;;;;;;;5.15;3.70;;;22.00;99.90;;;;;;13015967;22;20213;-84
2022/07/06 05:34:54;;;;;;;3.45;3.15;;;22.10;99.90;;;;;;13041970;22;20225;-84
2022/07/06 05:39:56;;;;;;;6.03;3.17;;;22.20;99.90;;;;;;13016574;22;20217;-84
2022/07/06 05:45:00;;;;;;;4.50;3.10;;;22.30;99.90;;;;;;13015828;22;20240;-84
2022/07/06 05:50:12;;;;;;;3.17;2.97;;;22.40;99.90;;;;;;13015825;22;20650;-84
2022/07/06 05:55:20;;;;;;;4.28;2.85;;;22.50;99.90;;;;;;12988995;22;20241;-85
2022/07/06 06:00:26;;;;;;;9.25;3.75;;;22.60;99.90;;;;;;12987114;22;20189;-84
2022/07/06 06:05:32;;;;;;;6.03;2.60;;;22.70;99.90;;;;;;12990819;22;20177;-84
2022/07/06 06:10:39;;;;;;;4.30;3.00;;;22.50;99.90;;;;;;13017597;22;20192;-84
2022/07/06 06:15:45;;;;;;;3.55;3.20;;;22.80;99.90;;;;;;12993094;22;20177;-84
2022/07/06 06:20:49;;;;;;;3.25;2.97;;;22.90;99.90;;;;;;12991314;22;20203;-84
2022/07/06 06:25:52;;;;;;;3.25;2.95;;;23.10;99.90;;;;;;13003998;22;20193;-83
2022/07/06 06:30:54;;;;;;;3.00;2.60;;;23.20;99.90;;;;;;12976531;22;20169;-84
2022/07/06 06:35:57;;;;;;;3.25;2.67;;;23.30;99.90;;;;;;12997028;22;20223;-84
2022/07/06 06:41:01;;;;;;;6.78;3.10;;;23.50;99.90;;;;;;13037500;22;20158;-84
2022/07/06 06:46:03;;;;;;;3.00;2.63;;;23.80;98.50;;;;;;13048410;22;20225;-84
2022/07/06 06:51:06;;;;;;;2.80;2.60;;;23.90;99.20;;;;;;13038228;22;20157;-85
2022/07/06 06:56:09;;;;;;;2.65;2.45;;;24.10;98.70;;;;;;13005680;22;20149;-84
2022/07/06 07:01:11;;;;;;;2.58;2.38;;;24.20;98.40;;;;;;13048721;22;20244;-85
2022/07/06 07:06:13;;;;;;;2.78;2.58;;;24.20;98.40;;;;;;13059403;22;20249;-84
2022/07/06 07:11:16;;;;;;;3.15;2.85;;;23.80;98.60;;;;;;13022413;22;20193;-84
2022/07/06 07:16:19;;;;;;;2.78;2.50;;;23.70;98.70;;;;;;13051665;22;20187;-84
2022/07/06 07:21:22;;;;;;;2.90;2.60;;;23.60;99.10;;;;;;12992737;22;20166;-84
2022/07/06 07:26:24;;;;;;;14.25;2.53;;;23.40;99.30;;;;;;12992275;22;20186;-84
2022/07/06 07:31:27;;;;;;;2.75;2.38;;;21.90;96.50;;;;;;12993463;22;20220;-84
2022/07/06 07:36:29;;;;;;;2.58;2.38;;;22.60;99.90;;;;;;12943209;22;20231;-85
2022/07/06 07:41:32;;;;;;;3.70;2.85;;;23.10;99.90;;;;;;12971488;22;20170;-86
2022/07/06 07:46:34;;;;;;;14.60;3.20;;;22.60;99.90;;;;;;12997220;22;20515;-94
2022/07/06 07:51:37;;;;;;;9.02;3.75;;;23.00;99.90;;;;;;12947420;22;20170;-93
2022/07/06 07:56:40;;;;;;;14.02;3.80;;;23.00;99.90;;;;;;12978648;22;20177;-93
2022/07/06 08:01:43;;;;;;;6.82;3.38;;;23.00;99.90;;;;;;12946068;22;20629;-93
2022/07/06 08:06:46;;;;;;;11.57;3.85;;;22.90;99.90;;;;;;12959535;22;20668;-93
2022/07/06 08:11:49;;;;;;;10.13;4.22;;;22.30;99.90;;;;;;13010582;22;20212;-94
2022/07/06 08:16:52;;;;;;;11.70;3.50;;;20.00;99.90;;;;;;12958817;22;20204;-94
2022/07/06 08:21:54;;;;;;;12.70;3.78;;;20.60;99.90;;;;;;12957793;22;20638;-95
2022/07/06 08:26:58;;;;;;;13.02;3.35;;;21.50;99.90;;;;;;12986540;22;20193;-94
2022/07/06 08:32:01;;;;;;;8.85;3.20;;;21.90;99.90;;;;;;12985084;22;20228;-95
2022/07/06 08:37:15;;;;;;;8.10;2.17;;;22.10;99.90;;;;;;12959714;22;20216;-95
2022/07/06 08:42:18;;;;;;;7.10;3.00;;;22.30;99.90;;;;;;12955709;22;20196;-94
2022/07/06 08:47:23;;;;;;;5.10;2.90;;;22.50;99.90;;;;;;13004034;22;20193;-95
2022/07/06 08:52:26;;;;;;;11.55;3.35;;;22.60;99.90;;;;;;12973786;22;20178;-94
2022/07/06 08:57:29;;;;;;;10.55;3.10;;;22.80;99.90;;;;;;12993675;22;20238;-95
2022/07/06 09:02:31;;;;;;;9.90;3.03;;;22.90;99.90;;;;;;12960964;22;20636;-95
2022/07/06 09:07:34;;;;;;;7.28;2.95;;;23.00;99.90;;;;;;12935023;22;20220;-94
2022/07/06 09:13:05;;;;;;;4.43;3.22;;;23.10;99.90;;;;;;12938676;22;20500;-89
2022/07/06 09:18:08;;;;;;;4.88;3.30;;;21.40;99.90;;;;;;13003093;22;20169;-90
2022/07/06 09:23:17;;;;;;;6.70;2.85;;;17.80;99.90;;;;;;12983440;22;20580;-89
2022/07/06 09:28:19;;;;;;;3.85;2.17;;;20.00;99.90;;;;;;12974148;22;20190;-90
2022/07/06 09:33:22;;;;;;;3.47;2.03;;;21.80;99.90;;;;;;12982747;22;20162;-91
2022/07/06 09:38:26;;;;;;;3.38;2.33;;;22.70;99.90;;;;;;12981450;22;20174;-90
2022/07/06 09:43:31;;;;;;;2.92;2.17;;;23.30;99.90;;;;;;12985882;22;20170;-90
2022/07/06 09:48:35;;;;;;;5.10;2.75;;;23.60;99.90;;;;;;12985630;22;20185;-90
2022/07/06 09:53:38;;;;;;;2.97;2.38;;;23.80;99.90;;;;;;12988411;22;20169;-90
2022/07/06 09:58:40;;;;;;;3.65;2.50;;;24.10;99.90;;;;;;12993678;22;20602;-91
2022/07/06 10:04:03;;;;;;;3.75;2.42;;;24.10;99.90;;;;;;13002602;22;20564;-90
2022/07/06 10:09:08;;;;;;;3.50;2.30;;;24.30;99.90;;;;;;12957788;22;20246;-90
2022/07/06 10:14:18;;;;;;;2.47;2.28;;;24.40;99.90;;;;;;12985240;22;20189;-90
2022/07/06 10:19:21;;;;;;;2.10;1.90;;;24.30;99.90;;;;;;12983753;22;20479;-90
2022/07/06 10:24:24;;;;;;;2.00;1.80;;;24.40;99.90;;;;;;13002684;22;20185;-90
2022/07/06 10:29:28;;;;;;;2.42;2.22;;;24.40;99.90;;;;;;13002217;22;20224;-90
2022/07/06 10:34:30;;;;;;;2.10;1.90;;;24.50;99.90;;;;;;12955554;22;20178;-91
2022/07/06 10:44:58;;;;;;;3.58;1.83;;;24.80;99.90;;;;;;12955723;22;20582;-93
2022/07/06 10:50:03;;;;;;;1.83;1.40;;;24.70;99.90;;;;;;12982615;22;20192;-93
2022/07/06 10:55:31;;;;;;;2.78;1.30;;;24.30;99.90;;;;;;12955624;22;20174;-94
2022/07/06 11:00:54;;;;;;;1.83;1.10;;;24.10;99.90;;;;;;12919524;23;20206;-92
2022/07/06 11:05:59;;;;;;;3.80;1.52;;;24.00;99.90;;;;;;12920061;23;20244;-94
2022/07/06 11:11:20;;;;;;;1.88;1.13;;;23.80;99.90;;;;;;12898909;23;20198;-94
2022/07/06 11:16:26;;;;;;;1.95;1.35;;;23.30;99.90;;;;;;12916507;23;20232;-93
2022/07/06 11:21:47;;;;;;;1.75;1.58;;;23.30;99.90;;;;;;12925757;23;20197;-92
2022/07/06 11:26:52;;;;;;;3.97;1.50;;;23.30;99.90;;;;;;12931786;23;20190;-91
2022/07/06 11:31:58;;;;;;;1.88;1.20;;;23.30;99.90;;;;;;12915541;23;20193;-93
2022/07/06 11:37:10;;;;;;;3.90;0.80;;;23.10;99.90;;;;;;12913453;23;20633;-85
2022/07/06 11:42:16;;;;;;;2.30;0.80;;;23.20;96.40;;;;;;12935422;23;20169;-85
2022/07/06 11:47:20;;;;;;;2.03;0.98;;;23.40;99.10;;;;;;12913357;23;20220;-84
2022/07/06 11:52:26;;;;;;;4.72;1.08;;;23.60;97.60;;;;;;12922396;23;20170;-85
2022/07/06 11:57:34;;;;;;;1.65;0.90;;;24.10;99.90;;;;;;12922744;22;20206;-85
2022/07/06 12:02:36;;;;;;;1.70;0.70;;;24.30;99.30;;;;;;12995844;22;20220;-85
2022/07/06 12:07:38;;;;;;;2.17;0.80;;;24.90;99.90;;;;;;12951894;22;20721;-84
2022/07/06 12:12:41;;;;;;;1.58;0.90;;;24.80;99.20;;;;;;12979651;22;20686;-86
2022/07/06 12:17:47;;;;;;;0.95;0.70;;;24.20;98.80;;;;;;12951172;22;20564;-85
2022/07/06 12:23:03;;;;;;;2.50;1.10;;;24.70;99.90;;;;;;12951110;22;20182;-85
2022/07/06 12:28:06;;;;;;;3.20;0.95;;;25.50;99.90;;;;;;13000065;22;20181;-85
2022/07/06 12:33:15;;;;;;;0.80;0.73;;;25.50;99.90;;;;;;12955754;22;20594;-85
2022/07/06 12:38:23;;;;;;;1.98;0.90;;;24.70;99.90;;;;;;12952995;22;20204;-85
2022/07/06 12:43:39;;;;;;;1.63;1.38;;;24.80;99.90;;;;;;12972603;22;20169;-85
2022/07/06 12:48:52;;;;;;;2.65;0.65;;;25.00;99.70;;;;;;12952917;22;20197;-85
2022/07/06 12:54:22;;;;;;;1.48;0.80;;;24.80;95.00;;;;;;12955405;22;20705;-85
2022/07/06 12:59:25;;;;;;;1.98;0.85;;;24.50;99.90;;;;;;12948685;22;20263;-85
2022/07/06 13:04:31;;;;;;;1.02;0.75;;;24.90;99.90;;;;;;12980400;22;20223;-85
2022/07/06 13:09:34;;;;;;;3.03;0.82;;;25.50;99.90;;;;;;12952948;22;20216;-85
2022/07/06 13:14:37;;;;;;;0.98;0.85;;;25.80;99.90;;;;;;12926678;22;20219;-86
2022/07/06 13:19:39;;;;;;;0.60;0.60;;;25.30;99.90;;;;;;12951895;22;20162;-85
2022/07/06 13:24:43;;;;;;;2.65;1.30;;;25.00;99.90;;;;;;12951904;22;20219;-86
2022/07/06 13:29:46;;;;;;;2.78;0.63;;;25.10;99.90;;;;;;12979499;22;20165;-85
2022/07/06 13:34:49;;;;;;;1.42;0.80;;;25.20;99.90;;;;;;12952575;22;20966;-85
2022/07/06 13:39:51;;;;;;;0.93;0.75;;;25.10;99.90;;;;;;12953310;22;20166;-85
2022/07/06 13:44:54;;;;;;;1.55;0.63;;;24.80;99.90;;;;;;12998419;22;20200;-85
2022/07/06 13:49:56;;;;;;;1.30;1.08;;;25.30;92.30;;;;;;12953030;22;20166;-85
2022/07/06 13:54:59;;;;;;;1.30;0.77;;;25.40;99.90;;;;;;12950151;22;20166;-85
2022/07/06 14:00:04;;;;;;;1.23;0.55;;;25.10;99.90;;;;;;12979597;22;20588;-85
2022/07/06 14:05:10;;;;;;;1.00;0.90;;;25.40;99.90;;;;;;13000734;22;20736;-85
2022/07/06 14:10:13;;;;;;;1.02;0.57;;;25.30;99.90;;;;;;12979050;22;20166;-84
2022/07/06 14:15:15;;;;;;;2.15;0.55;;;23.80;82.20;;;;;;12951719;22;20173;-84
2022/07/06 14:20:20;;;;;;;1.98;0.60;;;23.90;83.80;;;;;;12969265;22;20178;-83
2022/07/06 14:25:23;;;;;;;1.33;0.60;;;24.70;85.20;;;;;;12977814;22;20224;-83
2022/07/06 14:30:26;;;;;;;3.28;0.75;;;25.00;85.90;;;;;;12954271;22;20162;-84
2022/07/06 14:35:28;;;;;;;3.97;0.40;;;25.10;89.40;;;;;;12982832;22;20508;-84
2022/07/06 14:40:32;;;;;;;1.38;0.45;;;25.20;89.20;;;;;;12955621;22;20173;-83
2022/07/06 14:45:34;;;;;;;3.22;0.47;;;25.00;91.50;;;;;;12984348;22;20190;-84
2022/07/06 14:50:37;;;;;;;0.65;0.52;;;24.70;93.00;;;;;;12983284;22;20502;-83
2022/07/06 14:55:39;;;;;;;1.13;0.60;;;24.90;84.70;;;;;;12983730;22;20196;-83
2022/07/06 15:00:42;;;;;;;0.85;0.60;;;24.70;94.40;;;;;;12956454;22;20193;-83
2022/07/06 15:05:47;;;;;;;1.38;0.70;;;24.70;95.50;;;;;;12982610;22;20544;-84
2022/07/06 15:10:49;;;;;;;1.55;0.60;;;24.70;95.90;;;;;;12983076;22;20166;-84
2022/07/06 15:15:52;;;;;;;2.10;0.70;;;24.70;90.60;;;;;;12983126;22;20161;-83
2022/07/06 15:20:58;;;;;;;1.17;0.45;;;24.70;91.80;;;;;;12955193;22;20515;-84
2022/07/06 15:26:02;;;;;;;3.08;0.70;;;25.00;95.00;;;;;;12982384;22;20190;-83
2022/07/06 15:31:05;;;;;;;2.42;0.60;;;24.40;91.50;;;;;;12955641;22;20174;-83
2022/07/06 15:36:08;;;;;;;0.50;0.50;;;24.30;84.00;;;;;;12955187;22;20174;-84
2022/07/06 15:41:10;;;;;;;0.68;0.40;;;24.30;99.90;;;;;;12983096;22;20478;-84
2022/07/06 15:46:13;;;;;;;0.70;0.40;;;23.80;97.90;;;;;;12982888;22;20667;-84
2022/07/06 15:51:16;;;;;;;1.75;0.70;;;24.10;99.90;;;;;;12982929;22;20192;-83
2022/07/06 15:56:18;;;;;;;0.70;0.40;;;24.30;99.90;;;;;;12955138;22;20177;-83
2022/07/06 16:01:21;;;;;;;1.50;0.40;;;21.00;88.10;;;;;;12983099;22;20189;-83
2022/07/06 16:06:24;;;;;;;2.95;0.50;;;20.50;91.40;;;;;;12953632;22;20256;-84
2022/07/06 16:11:26;;;;;;;0.40;0.40;;;20.30;92.80;;;;;;12981956;22;20188;-83
2022/07/06 16:16:29;;;;;;;2.95;0.50;;;19.90;91.20;;;;;;12981876;22;20169;-83
2022/07/06 16:21:32;;;;;;;2.47;0.55;;;19.80;92.20;;;;;;12981614;22;20174;-83
2022/07/06 16:26:34;;;;;;;3.88;0.60;;;21.20;99.90;;;;;;12952549;22;20266;-84
2022/07/06 16:31:37;;;;;;;2.30;0.68;;;22.90;98.50;;;;;;12980291;22;20204;-84
2022/07/06 16:36:40;;;;;;;1.45;0.52;;;23.70;99.90;;;;;;12952616;22;20513;-83
2022/07/06 16:41:43;;;;;;;1.42;0.35;;;23.80;99.00;;;;;;12953742;22;20236;-83
2022/07/06 16:46:45;;;;;;;4.03;0.60;;;23.30;96.70;;;;;;12955075;22;20239;-83
2022/07/06 16:51:48;;;;;;;0.50;0.40;;;24.00;99.90;;;;;;12953166;22;20174;-84
2022/07/06 16:56:51;;;;;;;1.77;0.57;;;23.90;99.90;;;;;;12954065;22;20212;-83
2022/07/06 17:01:53;;;;;;;2.35;0.50;;;24.20;98.90;;;;;;12952962;22;20178;-83
2022/07/06 17:06:56;;;;;;;1.08;0.50;;;24.20;94.70;;;;;;12991265;22;20185;-83
2022/07/06 17:11:58;;;;;;;0.30;0.30;;;24.20;99.90;;;;;;12980250;22;20193;-83
2022/07/06 17:17:01;;;;;;;0.70;0.50;;;22.90;99.90;;;;;;12952804;22;20166;-83
2022/07/06 17:22:04;;;;;;;3.00;0.40;;;23.20;99.90;;;;;;12979700;22;20641;-84
2022/07/06 17:27:08;;;;;;;0.43;0.40;;;22.90;94.60;;;;;;12980240;22;20513;-86
2022/07/06 17:32:10;;;;;;;1.02;0.40;;;21.70;99.90;;;;;;12953458;22;20165;-83
2022/07/06 17:37:13;;;;;;;0.75;0.40;;;22.80;93.30;;;;;;12991551;22;20174;-83
2022/07/06 17:42:16;;;;;;;0.90;0.32;;;23.40;93.10;;;;;;12981335;22;20169;-83
2022/07/06 17:47:18;;;;;;;2.33;0.52;;;23.40;92.70;;;;;;12981037;22;20189;-83
2022/07/06 17:52:21;;;;;;;2.10;0.30;;;23.40;93.50;;;;;;12953559;22;20573;-83
2022/07/06 17:57:24;;;;;;;1.75;0.40;;;23.00;91.20;;;;;;12981034;22;20193;-83
2022/07/06 18:02:26;;;;;;;0.93;0.40;;;23.50;94.20;;;;;;12955795;22;20178;-83
2022/07/06 18:07:29;;;;;;;0.95;0.40;;;23.50;95.50;;;;;;12967372;22;20182;-83
2022/07/06 18:12:31;;;;;;;0.68;0.40;;;23.50;96.00;;;;;;13002388;22;20207;-83
2022/07/06 18:17:34;;;;;;;4.13;0.57;;;23.70;96.80;;;;;;12956843;22;20231;-83
2022/07/06 18:22:36;;;;;;;2.95;0.30;;;23.30;96.70;;;;;;12955734;22;20181;-83
2022/07/06 18:27:39;;;;;;;1.15;0.50;;;23.10;88.50;;;;;;12985091;22;20190;-83
2022/07/06 18:32:41;;;;;;;0.82;0.30;;;23.00;90.80;;;;;;12984797;22;20162;-83
2022/07/06 18:37:44;;;;;;;1.02;0.60;;;23.40;90.80;;;;;;12984550;22;20514;-84
2022/07/06 18:42:46;;;;;;;0.57;0.22;;;23.50;91.40;;;;;;12984283;22;20223;-83
2022/07/06 18:47:49;;;;;;;0.88;0.45;;;23.50;92.00;;;;;;12957295;22;20190;-83
2022/07/06 18:52:56;;;;;;;1.77;0.80;;;23.60;92.70;;;;;;12991075;22;20169;-84
2022/07/06 18:57:58;;;;;;;1.27;0.50;;;23.60;93.20;;;;;;12981954;22;20681;-83
2022/07/06 19:03:01;;;;;;;0.77;0.50;;;23.60;93.80;;;;;;12952658;22;20196;-82
2022/07/06 19:08:03;;;;;;;2.08;0.40;;;23.60;94.50;;;;;;12979083;22;20178;-82
2022/07/06 19:13:07;;;;;;;0.77;0.45;;;23.60;95.00;;;;;;12978980;22;20235;-82
2022/07/06 19:18:11;;;;;;;0.73;0.65;;;23.60;95.50;;;;;;12926862;22;20177;-82
2022/07/06 19:23:14;;;;;;;2.25;0.25;;;23.60;96.00;;;;;;12957605;22;20170;-82
2022/07/06 19:28:17;;;;;;;0.75;0.30;;;23.60;96.50;;;;;;12977971;22;20182;-82
2022/07/06 19:33:19;;;;;;;6.97;0.50;;;23.60;96.90;;;;;;12948961;22;20748;-82
2022/07/06 19:38:22;;;;;;;1.65;0.40;;;23.50;95.80;;;;;;12975937;22;20170;-82
2022/07/06 19:43:24;;;;;;;2.53;0.40;;;23.50;97.80;;;;;;12950190;22;20170;-83
2022/07/06 19:48:27;;;;;;;0.60;0.60;;;23.60;98.20;;;;;;12977114;22;20239;-83
2022/07/06 19:53:30;;;;;;;0.30;0.30;;;23.50;98.50;;;;;;12949491;22;20227;-83
2022/07/06 19:58:33;;;;;;;0.95;0.52;;;23.60;98.90;;;;;;12978937;22;20186;-83
2022/07/06 20:03:35;;;;;;;1.60;0.43;;;23.50;99.30;;;;;;12980052;22;20162;-81
2022/07/06 20:08:38;;;;;;;1.30;0.45;;;23.50;99.50;;;;;;12955179;22;20181;-83
2022/07/06 20:13:41;;;;;;;0.55;0.40;;;23.60;99.80;;;;;;12981676;22;20237;-83
2022/07/06 20:18:43;;;;;;;0.95;0.52;;;23.50;99.90;;;;;;12981730;22;20697;-83
2022/07/06 20:23:49;;;;;;;0.60;0.30;;;23.50;99.90;;;;;;12929272;22;20227;-83
2022/07/06 20:28:52;;;;;;;0.70;0.50;;;23.50;99.90;;;;;;12952721;22;20247;-83
2022/07/06 20:33:55;;;;;;;0.90;0.55;;;23.50;99.90;;;;;;12981055;22;20543;-83
2022/07/06 20:38:57;;;;;;;0.40;0.35;;;23.50;99.90;;;;;;12954745;22;20173;-83
2022/07/06 20:44:00;;;;;;;0.57;0.30;;;23.40;99.90;;;;;;12982070;22;20169;-83
2022/07/06 20:49:02;;;;;;;0.65;0.40;;;23.40;99.90;;;;;;12954914;22;20518;-83
2022/07/06 20:54:06;;;;;;;1.50;0.30;;;23.40;99.90;;;;;;12979316;22;20169;-83
2022/07/06 20:59:08;;;;;;;0.50;0.35;;;23.40;99.90;;;;;;12953504;22;20763;-83
2022/07/06 21:04:15;;;;;;;0.45;0.38;;;23.40;99.90;;;;;;12973944;22;20165;-83
2022/07/06 21:09:17;;;;;;;1.08;0.40;;;23.40;99.90;;;;;;12981065;22;20523;-83
2022/07/06 21:14:20;;;;;;;0.60;0.52;;;23.30;99.90;;;;;;12999178;22;20185;-83
2022/07/06 21:19:22;;;;;;;0.85;0.30;;;23.30;99.90;;;;;;12954490;22;20224;-83
2022/07/06 21:24:24;;;;;;;0.40;0.32;;;23.30;99.90;;;;;;12954217;22;20196;-83
2022/07/06 21:29:27;;;;;;;0.52;0.38;;;23.30;99.90;;;;;;12953639;22;20185;-83
2022/07/06 21:34:29;;;;;;;1.05;0.40;;;23.30;99.90;;;;;;12955497;22;20219;-83
2022/07/06 21:39:32;;;;;;;0.65;0.43;;;23.30;99.90;;;;;;12987812;22;20178;-84
2022/07/06 21:44:34;;;;;;;1.77;0.60;;;23.30;99.90;;;;;;13004531;22;20195;-84
2022/07/06 21:49:37;;;;;;;0.65;0.30;;;23.30;99.90;;;;;;12987707;22;20530;-84
2022/07/06 21:54:40;;;;;;;0.88;0.60;;;23.30;99.90;;;;;;12987352;22;20720;-84
2022/07/06 21:59:43;;;;;;;0.70;0.43;;;23.30;99.90;;;;;;12990855;22;20567;-84
2022/07/06 22:04:46;;;;;;;1.00;0.88;;;23.20;99.90;;;;;;12961073;22;20277;-84
2022/07/06 22:09:48;;;;;;;1.02;0.43;;;23.20;99.90;;;;;;12987660;22;20215;-84
2022/07/06 22:14:51;;;;;;;0.57;0.40;;;23.20;99.90;;;;;;13007679;22;20881;-84
2022/07/06 22:19:57;;;;;;;1.75;0.45;;;23.20;99.90;;;;;;12987590;22;20170;-84
2022/07/06 22:25:01;;;;;;;0.50;0.50;;;23.20;99.90;;;;;;12961328;22;20694;-84
2022/07/06 22:30:05;;;;;;;0.60;0.40;;;23.20;99.90;;;;;;12986560;22;20190;-84
2022/07/06 22:35:08;;;;;;;0.55;0.40;;;23.20;99.90;;;;;;12987318;22;20488;-83
2022/07/06 22:45:32;;;;;;;1.08;0.40;;;23.20;99.90;;;;;;13005207;22;20166;-84
2022/07/06 22:50:34;;;;;;;0.38;0.35;;;23.20;99.90;;;;;;12983904;22;20189;-83
2022/07/06 22:55:37;;;;;;;1.25;0.70;;;23.10;99.90;;;;;;12957403;22;20223;-83
2022/07/06 23:00:40;;;;;;;0.70;0.50;;;23.20;99.90;;;;;;12957409;22;20194;-83
2022/07/06 23:05:42;;;;;;;1.52;0.60;;;23.10;99.90;;;;;;12954908;22;20243;-84
2022/07/06 23:10:45;;;;;;;1.92;0.50;;;23.10;99.90;;;;;;12983534;22;20190;-83
2022/07/06 23:15:48;;;;;;;0.82;0.60;;;23.10;99.90;;;;;;12955204;22;20173;-83
2022/07/06 23:20:52;;;;;;;0.52;0.40;;;23.10;99.90;;;;;;12983536;22;20529;-83
2022/07/06 23:25:54;;;;;;;0.40;0.40;;;23.10;99.90;;;;;;12956351;22;20178;-83
2022/07/06 23:30:57;;;;;;;0.43;0.40;;;23.10;99.90;;;;;;12983246;22;20244;-83
2022/07/06 23:36:00;;;;;;;0.90;0.52;;;23.10;99.90;;;;;;12983444;22;20215;-84
2022/07/06 23:41:03;;;;;;;1.73;0.77;;;23.10;99.90;;;;;;12956849;22;20203;-83
2022/07/06 23:46:05;;;;;;;0.50;0.40;;;23.10;99.90;;;;;;12983091;22;20170;-83
2022/07/06 23:51:08;;;;;;;0.98;0.50;;;23.10;99.90;;;;;;12955476;22;20194;-83
2022/07/06 23:56:11;;;;;;;1.02;0.70;;;23.10;99.90;;;;;;12955673;22;20711;-83
